Time;durP1;ratioP1;P1;durP2;ratioP2;P2;SDS_P1;SDS_P2;PMS_P1;PMS_P2;Temp;Humidity;BMP_temperature;BMP_pressure;BME280_temperature;BME280_humidity;BME280_pressure;Samples;Min_cycle;Max_cycle;Signal;HPM_P1;HPM_P2
2023/04/21 00:01:57;;;;;;;22.03;10.10;;;;;;;7.70;100.00;101172.97;6074904;28;20421;-73
2023/04/21 00:04:55;;;;;;;20.10;10.63;;;;;;;7.78;100.00;101171.44;6074465;28;20091;-72
2023/04/21 00:07:51;;;;;;;20.83;10.32;;;;;;;7.83;100.00;101181.66;6073802;28;20049;-72
2023/04/21 00:10:46;;;;;;;21.75;10.63;;;;;;;7.80;100.00;101168.69;6078553;28;20052;-72
2023/04/21 00:13:41;;;;;;;22.55;11.40;;;;;;;7.82;100.00;101172.06;6071737;28;20103;-73
2023/04/21 00:16:37;;;;;;;23.00;11.43;;;;;;;7.73;100.00;101167.47;6072574;28;20049;-71
2023/04/21 00:19:34;;;;;;;23.37;11.27;;;;;;;7.81;100.00;101170.38;6081399;28;20082;-72
2023/04/21 00:22:29;;;;;;;19.80;10.40;;;;;;;7.75;100.00;101165.56;6070674;28;20777;-71
2023/04/21 00:25:24;;;;;;;24.80;11.70;;;;;;;7.67;100.00;101142.38;6070761;28;20053;-72
2023/04/21 00:28:20;;;;;;;23.38;10.73;;;;;;;7.73;100.00;101149.00;6070234;28;20029;-71
2023/04/21 00:31:15;;;;;;;26.90;12.05;;;;;;;7.83;100.00;101165.00;6071001;28;20404;-73
2023/04/21 00:34:10;;;;;;;27.83;10.90;;;;;;;7.81;100.00;101159.81;6069776;28;20512;-71
2023/04/21 00:37:06;;;;;;;24.47;11.37;;;;;;;7.77;100.00;101140.72;6070816;28;20755;-72
2023/04/21 00:40:02;;;;;;;20.83;10.00;;;;;;;7.63;100.00;101122.47;6071136;28;20036;-72
2023/04/21 00:42:58;;;;;;;18.08;9.40;;;;;;;7.66;100.00;101134.59;6068322;28;20087;-74
2023/04/21 00:45:53;;;;;;;20.13;10.10;;;;;;;7.79;100.00;101140.63;6071392;28;20042;-72
2023/04/21 00:48:48;;;;;;;22.02;10.25;;;;;;;7.76;100.00;101144.34;6073209;28;20436;-70
2023/04/21 00:51:44;;;;;;;22.60;10.90;;;;;;;7.73;100.00;101131.38;6073586;28;20037;-71
2023/04/21 00:54:39;;;;;;;19.20;9.40;;;;;;;7.64;100.00;101116.22;6073287;28;20025;-72
2023/04/21 00:57:36;;;;;;;17.97;9.37;;;;;;;7.67;100.00;101136.25;6076632;28;20037;-72
2023/04/21 01:00:32;;;;;;;22.55;9.52;;;;;;;7.60;100.00;101125.34;6073534;28;20112;-72
2023/04/21 01:03:27;;;;;;;26.23;10.23;;;;;;;7.59;100.00;101139.50;6084365;28;20430;-72
2023/04/21 01:06:22;;;;;;;18.27;10.13;;;;;;;7.53;100.00;101131.19;6088251;28;20295;-73
2023/04/21 01:09:18;;;;;;;20.60;9.27;;;;;;;7.42;100.00;101118.00;6074754;28;20075;-71
2023/04/21 01:12:13;;;;;;;20.80;9.43;;;;;;;7.36;100.00;101121.94;6092108;28;20030;-71
2023/04/21 01:15:09;;;;;;;17.77;9.83;;;;;;;7.43;100.00;101127.56;6079598;28;20048;-70
2023/04/21 01:18:05;;;;;;;21.23;9.93;;;;;;;7.35;100.00;101114.13;6072735;28;20061;-70
2023/04/21 01:21:01;;;;;;;18.55;9.88;;;;;;;7.37;100.00;101118.31;6074103;28;20038;-72
2023/04/21 01:23:56;;;;;;;18.75;9.30;;;;;;;7.42;100.00;101131.19;6072826;28;20041;-72
2023/04/21 01:26:51;;;;;;;23.83;10.57;;;;;;;7.44;100.00;101127.47;6073173;28;20033;-72
2023/04/21 01:29:50;;;;;;;23.27;10.80;;;;;;;7.45;100.00;101129.13;6072198;28;20271;-71
2023/04/21 01:32:45;;;;;;;23.08;10.15;;;;;;;7.41;100.00;101125.06;6073117;28;20036;-72
2023/04/21 01:35:40;;;;;;;18.87;9.70;;;;;;;7.37;100.00;101120.09;6072264;28;20042;-73
2023/04/21 01:38:42;;;;;;;20.43;9.57;;;;;;;7.37;100.00;101114.84;6076349;28;20029;-73
2023/04/21 01:41:37;;;;;;;19.92;9.77;;;;;;;7.43;100.00;101122.28;6072571;28;20033;-71
2023/04/21 01:44:33;;;;;;;20.23;10.20;;;;;;;7.37;100.00;101106.91;6072672;28;20128;-70
2023/04/21 01:47:28;;;;;;;17.90;8.77;;;;;;;7.43;100.00;101111.75;6073183;28;20033;-72
2023/04/21 01:50:23;;;;;;;19.13;9.67;;;;;;;7.47;100.00;101121.13;6072858;28;20025;-72
2023/04/21 01:53:18;;;;;;;17.60;9.20;;;;;;;7.47;100.00;101118.47;6072189;28;20029;-71
2023/04/21 01:56:14;;;;;;;21.37;8.70;;;;;;;7.35;100.00;101098.28;6072544;28;20037;-72
2023/04/21 01:59:09;;;;;;;21.05;10.15;;;;;;;7.37;100.00;101106.91;6073118;28;20124;-71
2023/04/21 02:02:04;;;;;;;23.40;9.37;;;;;;;7.42;100.00;101113.53;6073078;28;20030;-72
2023/04/21 02:05:00;;;;;;;18.70;8.30;;;;;;;7.36;100.00;101102.63;6072058;28;20083;-71
2023/04/21 02:07:55;;;;;;;22.43;9.20;;;;;;;7.39;100.00;101107.66;6071991;28;20604;-72
2023/04/21 02:10:50;;;;;;;18.73;8.93;;;;;;;7.45;100.00;101115.09;6071625;28;20045;-72
2023/04/21 02:13:46;;;;;;;24.90;9.47;;;;;;;7.50;100.00;101107.69;6072093;28;20039;-71
2023/04/21 02:16:41;;;;;;;19.70;8.23;;;;;;;7.44;100.00;101110.78;6071813;28;20038;-71
2023/04/21 02:19:37;;;;;;;21.88;8.75;;;;;;;7.50;100.00;101115.63;6075580;28;20103;-72
2023/04/21 02:22:32;;;;;;;19.92;9.85;;;;;;;7.37;100.00;101086.66;6071699;28;20049;-72
2023/04/21 02:25:28;;;;;;;15.10;7.73;;;;;;;7.42;100.00;101102.16;6071028;28;20419;-73
2023/04/21 02:28:23;;;;;;;15.35;7.80;;;;;;;7.36;100.00;101097.34;6071377;28;20025;-71
2023/04/21 02:31:20;;;;;;;22.03;8.60;;;;;;;7.33;100.00;101094.94;6070331;28;20029;-73
2023/04/21 02:34:16;;;;;;;16.17;8.68;;;;;;;7.41;100.00;101111.03;6071387;28;20391;-73
2023/04/21 02:37:11;;;;;;;14.95;7.63;;;;;;;7.37;100.00;101101.66;6072490;28;20044;-70
2023/04/21 02:40:08;;;;;;;14.63;7.43;;;;;;;7.26;100.00;101089.28;6071544;28;20044;-72
2023/04/21 02:43:03;;;;;;;18.35;8.55;;;;;;;7.36;100.00;101102.63;6072041;28;20505;-71
2023/04/21 02:45:58;;;;;;;20.77;7.60;;;;;;;7.26;100.00;101088.41;6071337;28;20049;-72
2023/04/21 02:48:54;;;;;;;17.20;8.47;;;;;;;7.24;100.00;101096.47;6074097;28;20031;-71
2023/04/21 02:51:49;;;;;;;16.50;8.30;;;;;;;7.14;100.00;101093.69;6076710;28;20475;-72
2023/04/21 02:54:44;;;;;;;17.13;7.40;;;;;;;7.18;100.00;101091.63;6075299;28;20333;-72
2023/04/21 02:57:39;;;;;;;17.20;8.17;;;;;;;7.19;100.00;101099.47;6074933;28;20402;-72
2023/04/21 03:00:35;;;;;;;15.40;7.63;;;;;;;7.11;100.00;101091.28;6076342;28;20502;-71
2023/04/21 03:03:31;;;;;;;15.23;6.63;;;;;;;7.17;100.00;101105.81;6075903;28;20036;-72
2023/04/21 03:06:27;;;;;;;18.60;7.97;;;;;;;7.15;100.00;101098.00;6076058;28;20762;-72
2023/04/21 03:09:22;;;;;;;15.75;7.97;;;;;;;7.08;100.00;101106.47;6076028;28;20046;-72
2023/04/21 03:12:17;;;;;;;16.17;8.00;;;;;;;7.02;100.00;101091.94;6075217;28;20080;-72
2023/04/21 03:15:14;;;;;;;21.87;9.60;;;;;;;6.96;100.00;101094.19;6075274;28;20039;-70
2023/04/21 03:18:10;;;;;;;25.52;8.30;;;;;;;6.94;100.00;101099.59;6067043;28;20029;-70
2023/04/21 03:21:05;;;;;;;19.13;8.55;;;;;;;6.95;100.00;101096.00;6076903;28;20112;-72
2023/04/21 03:24:00;;;;;;;20.07;8.90;;;;;;;6.96;100.00;101104.75;6074366;28;20037;-72
2023/04/21 03:26:56;;;;;;;17.30;7.73;;;;;;;6.87;100.00;101100.16;6079407;28;20290;-71
2023/04/21 03:29:51;;;;;;;16.47;7.77;;;;;;;6.92;100.00;101103.28;6075930;28;20029;-72
2023/04/21 03:32:46;;;;;;;16.10;8.30;;;;;;;6.83;100.00;101096.91;6077507;28;20375;-70
2023/04/21 03:35:42;;;;;;;18.27;8.17;;;;;;;6.84;100.00;101095.97;6101959;28;20030;-71
2023/04/21 03:38:37;;;;;;;14.97;6.97;;;;;;;6.86;100.00;101087.94;6075168;28;20113;-72
2023/04/21 03:41:32;;;;;;;17.57;8.37;;;;;;;6.91;100.00;101091.91;6075498;28;20268;-71
2023/04/21 03:44:28;;;;;;;15.00;8.23;;;;;;;6.88;100.00;101092.13;6074567;28;20068;-71
2023/04/21 03:47:23;;;;;;;17.80;9.00;;;;;;;6.83;100.00;101091.63;6075056;28;20461;-71
2023/04/21 03:50:18;;;;;;;13.63;6.57;;;;;;;6.75;100.00;101086.09;6075238;28;20302;-70
2023/04/21 03:53:14;;;;;;;18.40;7.23;;;;;;;6.81;100.00;101103.25;6074869;28;20470;-71
2023/04/21 03:56:09;;;;;;;16.37;7.57;;;;;;;6.78;100.00;101099.03;6078730;28;20030;-71
2023/04/21 03:59:05;;;;;;;15.75;7.53;;;;;;;6.76;100.00;101100.97;6075917;28;20777;-70
2023/04/21 04:02:00;;;;;;;18.65;7.50;;;;;;;6.85;100.00;101116.06;6074146;28;20041;-70
2023/04/21 04:04:55;;;;;;;20.73;8.30;;;;;;;6.71;100.00;101100.47;6074476;28;20044;-72
2023/04/21 04:07:51;;;;;;;16.88;7.78;;;;;;;6.75;100.00;101104.53;6074358;28;20041;-71
2023/04/21 04:10:46;;;;;;;18.43;8.10;;;;;;;6.71;100.00;101108.34;6074798;28;20049;-72
2023/04/21 04:13:41;;;;;;;19.90;7.23;;;;;;;6.70;100.00;101105.81;6073356;28;20029;-70
2023/04/21 04:16:36;;;;;;;17.60;7.53;;;;;;;6.71;100.00;101121.53;6074607;28;20033;-73
2023/04/21 04:19:32;;;;;;;16.90;7.57;;;;;;;6.66;100.00;101112.28;6074547;28;20074;-70
2023/04/21 04:22:27;;;;;;;17.10;7.93;;;;;;;6.78;100.00;101124.53;6073608;28;20280;-72
2023/04/21 04:25:22;;;;;;;16.03;7.33;;;;;;;6.73;100.00;101116.97;6072165;28;20044;-72
2023/04/21 04:28:18;;;;;;;19.07;8.60;;;;;;;6.64;100.00;101112.38;6078865;28;20037;-71
2023/04/21 04:31:13;;;;;;;16.97;8.33;;;;;;;6.62;100.00;101116.91;6073998;28;20285;-72
2023/04/21 04:34:10;;;;;;;14.98;7.07;;;;;;;6.66;100.00;101105.19;6073345;28;20114;-71
2023/04/21 04:37:05;;;;;;;15.15;8.23;;;;;;;6.70;100.00;101122.47;6073252;28;20070;-72
2023/04/21 04:40:01;;;;;;;19.67;7.90;;;;;;;6.62;100.00;101109.00;6074103;28;20026;-70
2023/04/21 04:42:56;;;;;;;18.73;7.88;;;;;;;6.70;100.00;101114.56;6073590;28;20284;-70
2023/04/21 04:45:52;;;;;;;24.23;8.48;;;;;;;6.71;100.00;101111.00;6072688;28;20087;-71
2023/04/21 04:48:47;;;;;;;14.90;7.90;;;;;;;6.75;100.00;101106.31;6071712;28;20448;-72
2023/04/21 04:51:42;;;;;;;16.17;6.87;;;;;;;6.84;100.00;101134.66;6073699;28;20021;-70
2023/04/21 04:54:38;;;;;;;16.97;6.87;;;;;;;6.83;100.00;101117.13;6072281;28;20049;-71
2023/04/21 04:57:33;;;;;;;24.93;7.90;;;;;;;6.88;100.00;101129.03;6073234;28;20037;-72
2023/04/21 05:00:28;;;;;;;13.40;6.47;;;;;;;6.97;100.00;101141.56;6073855;28;20099;-70
2023/04/21 05:03:24;;;;;;;16.83;7.07;;;;;;;6.90;100.00;101129.75;6072964;28;20033;-72
2023/04/21 05:06:19;;;;;;;11.48;6.50;;;;;;;6.99;100.00;101142.28;6073272;28;20558;-71
2023/04/21 05:09:15;;;;;;;20.98;6.95;;;;;;;7.00;100.00;101141.31;6072656;28;20044;-70
2023/04/21 05:12:11;;;;;;;13.18;6.93;;;;;;;7.18;100.00;101147.88;6073040;28;20508;-72
2023/04/21 05:15:07;;;;;;;12.77;5.30;;;;;;;7.25;100.00;101157.97;6072958;28;20030;-71
2023/04/21 05:18:02;;;;;;;12.27;6.13;;;;;;;7.30;100.00;101159.31;6072752;28;20057;-72
2023/04/21 05:20:58;;;;;;;15.20;6.63;;;;;;;7.37;100.00;101146.50;6077631;28;20128;-71
2023/04/21 05:23:57;;;;;;;16.67;5.97;;;;;;;7.61;100.00;101137.56;6077860;28;20391;-71
2023/04/21 05:26:53;;;;;;;15.18;6.05;;;;;;;8.15;100.00;101143.03;6072983;28;20026;-71
2023/04/21 05:29:48;;;;;;;13.32;5.85;;;;;;;8.41;100.00;101132.25;6073476;28;20048;-74
2023/04/21 05:32:43;;;;;;;18.53;6.17;;;;;;;8.57;100.00;101138.00;6072607;28;20037;-74
2023/04/21 05:35:39;;;;;;;10.43;5.30;;;;;;;9.00;100.00;101152.06;6072655;28;20287;-72
2023/04/21 05:38:35;;;;;;;12.85;5.72;;;;;;;9.14;98.67;101138.56;6073036;28;20030;-71
2023/04/21 05:41:31;;;;;;;13.35;5.50;;;;;;;9.65;98.12;101153.72;6072932;28;20128;-71
2023/04/21 05:44:26;;;;;;;17.20;5.47;;;;;;;9.38;97.40;101162.97;6072071;28;20045;-72
2023/04/21 05:47:21;;;;;;;10.10;5.23;;;;;;;9.11;98.54;101156.47;6072987;28;20025;-72
2023/04/21 05:50:16;;;;;;;11.30;5.30;;;;;;;9.76;96.70;101167.72;6072560;28;20455;-71
2023/04/21 05:53:20;;;;;;;11.87;5.07;;;;;;;10.22;95.08;101169.94;6074868;28;20033;-71
2023/04/21 05:56:15;;;;;;;12.05;5.90;;;;;;;9.78;95.58;101175.56;6098570;28;20104;-70
2023/04/21 05:59:10;;;;;;;16.53;5.53;;;;;;;10.25;94.67;101163.53;6072585;28;20037;-71
2023/04/21 06:02:06;;;;;;;14.40;5.90;;;;;;;9.93;94.22;101169.78;6072846;28;20444;-70
2023/04/21 06:05:01;;;;;;;13.07;5.82;;;;;;;10.07;92.72;101135.00;6071830;28;20041;-71
2023/04/21 06:07:57;;;;;;;13.63;5.30;;;;;;;10.45;91.74;101133.50;6072671;28;20037;-70
2023/04/21 06:10:52;;;;;;;11.70;5.20;;;;;;;10.34;92.45;101153.00;6072247;28;20385;-71
2023/04/21 06:13:47;;;;;;;14.07;5.43;;;;;;;10.33;92.86;101130.09;6072248;28;20030;-72
2023/04/21 06:16:42;;;;;;;18.43;5.63;;;;;;;10.49;91.50;101132.28;6072642;28;20271;-72
2023/04/21 06:19:38;;;;;;;15.30;5.93;;;;;;;10.93;88.93;101138.91;6072684;28;20045;-70
2023/04/21 06:22:33;;;;;;;11.83;5.90;;;;;;;10.66;89.07;101150.16;6076273;28;20033;-72
2023/04/21 06:25:29;;;;;;;13.87;4.90;;;;;;;10.84;89.14;101118.53;6075954;28;20284;-70
2023/04/21 06:28:24;;;;;;;10.40;5.30;;;;;;;10.84;89.18;101121.16;6077129;28;20033;-72
2023/04/21 06:31:20;;;;;;;10.30;4.93;;;;;;;10.98;88.10;101123.44;6077148;28;20033;-71
2023/04/21 06:34:15;;;;;;;10.32;5.32;;;;;;;10.98;88.55;101128.75;6076411;28;20026;-72
2023/04/21 06:37:10;;;;;;;10.27;6.00;;;;;;;11.15;87.54;101122.72;6076880;28;20490;-72
2023/04/21 06:40:06;;;;;;;11.57;6.07;;;;;;;10.98;87.69;101113.63;6076831;28;20029;-71
2023/04/21 06:43:02;;;;;;;11.70;5.90;;;;;;;11.06;87.74;101118.25;6076911;28;20026;-70
2023/04/21 06:45:57;;;;;;;19.23;6.43;;;;;;;11.26;86.55;101104.00;6076234;28;20147;-70
2023/04/21 06:48:52;;;;;;;15.70;5.47;;;;;;;11.47;86.29;101112.63;6076881;28;20026;-73
2023/04/21 06:51:48;;;;;;;13.53;6.07;;;;;;;11.72;84.82;101093.47;6076023;28;20033;-70
2023/04/21 06:54:43;;;;;;;16.88;5.72;;;;;;;11.56;85.44;101111.78;6076293;28;20065;-72
2023/04/21 06:57:38;;;;;;;10.80;5.30;;;;;;;11.94;84.38;101106.41;6076775;28;20179;-72
2023/04/21 07:00:33;;;;;;;17.10;5.40;;;;;;;11.73;84.54;101099.63;6075901;28;20030;-71
2023/04/21 07:03:29;;;;;;;8.60;5.33;;;;;;;12.05;83.91;101108.06;6075755;28;20029;-70
2023/04/21 07:06:24;;;;;;;12.13;5.57;;;;;;;12.05;83.23;101100.06;6075293;28;20045;-73
2023/04/21 07:09:19;;;;;;;13.07;5.70;;;;;;;12.08;82.95;101101.59;6075181;28;20048;-71
2023/04/21 07:12:15;;;;;;;14.93;6.17;;;;;;;12.38;81.67;101091.53;6076126;28;20044;-72
2023/04/21 07:15:11;;;;;;;11.80;5.47;;;;;;;12.70;79.91;101101.69;6075023;28;20484;-71
2023/04/21 07:18:06;;;;;;;17.13;5.57;;;;;;;12.97;78.56;101093.66;6075773;28;20033;-72
2023/04/21 07:21:01;;;;;;;15.00;6.17;;;;;;;13.11;78.06;101082.50;6080227;28;20025;-73
2023/04/21 07:23:57;;;;;;;11.50;6.47;;;;;;;13.20;77.59;101094.06;6080417;28;20398;-73
2023/04/21 07:26:52;;;;;;;11.00;5.88;;;;;;;12.98;77.65;101091.81;6075411;28;20117;-72
2023/04/21 07:29:48;;;;;;;14.60;5.73;;;;;;;12.99;77.80;101082.88;6075361;28;20037;-73
2023/04/21 07:32:43;;;;;;;12.07;5.50;;;;;;;13.27;75.91;101094.25;6075504;28;20044;-72
2023/04/21 07:35:38;;;;;;;14.13;6.13;;;;;;;13.10;77.10;101075.50;6073295;28;20424;-73
2023/04/21 07:38:33;;;;;;;21.87;6.63;;;;;;;13.35;75.69;101078.34;6079123;28;20500;-72
2023/04/21 07:41:29;;;;;;;16.23;6.17;;;;;;;13.65;74.48;101088.56;6083580;28;20470;-72
2023/04/21 07:44:24;;;;;;;11.40;6.30;;;;;;;13.70;74.47;101094.25;6074396;28;20037;-71
2023/04/21 07:47:19;;;;;;;12.10;5.80;;;;;;;13.71;72.60;101075.47;6075078;28;20598;-73
2023/04/21 07:50:15;;;;;;;12.53;6.40;;;;;;;14.00;72.01;101082.25;6074984;28;20475;-71
2023/04/21 07:53:10;;;;;;;13.43;6.33;;;;;;;13.90;73.27;101087.72;6074841;28;20048;-73
2023/04/21 07:56:06;;;;;;;17.13;6.90;;;;;;;13.99;73.16;101080.63;6073730;28;20056;-73
2023/04/21 07:59:01;;;;;;;15.55;6.03;;;;;;;14.20;71.11;101076.53;6074821;28;20084;-72
2023/04/21 08:01:56;;;;;;;13.37;5.63;;;;;;;14.25;70.52;101078.72;6075281;28;20038;-72
2023/04/21 08:04:52;;;;;;;13.73;6.03;;;;;;;14.26;69.83;101075.91;6074604;28;20091;-72
2023/04/21 08:07:47;;;;;;;10.70;5.73;;;;;;;14.41;70.01;101067.28;6075256;28;20033;-74
2023/04/21 08:10:42;;;;;;;15.10;5.83;;;;;;;14.68;68.71;101070.53;6074954;28;20021;-71
2023/04/21 08:13:38;;;;;;;12.73;5.90;;;;;;;14.82;68.34;101061.06;6075006;28;20036;-71
2023/04/21 08:16:33;;;;;;;12.20;5.57;;;;;;;15.19;66.49;101069.44;6088015;28;20076;-73
2023/04/21 08:19:28;;;;;;;9.63;5.50;;;;;;;15.24;66.03;101077.81;6093049;28;20025;-72
2023/04/21 08:22:24;;;;;;;13.37;4.83;;;;;;;15.14;64.66;101061.06;6074563;28;20041;-73
2023/04/21 08:25:19;;;;;;;13.83;4.90;;;;;;;15.28;62.89;101063.09;6075286;28;20040;-72
2023/04/21 08:28:14;;;;;;;12.60;5.67;;;;;;;15.37;64.43;101064.75;6068292;28;20033;-72
2023/04/21 08:31:09;;;;;;;12.70;5.23;;;;;;;15.53;64.73;101057.75;6074816;28;20029;-72
2023/04/21 08:34:06;;;;;;;14.33;5.53;;;;;;;15.74;63.51;101055.34;6073592;28;20026;-72
2023/04/21 08:37:01;;;;;;;13.20;5.10;;;;;;;15.86;61.10;101030.78;6074579;28;20330;-74
2023/04/21 08:39:56;;;;;;;12.87;5.27;;;;;;;15.72;60.74;101027.97;6074383;28;20037;-72
2023/04/21 08:42:51;;;;;;;11.07;5.00;;;;;;;16.07;60.53;101055.09;6073648;28;20041;-72
2023/04/21 08:45:47;;;;;;;13.83;4.90;;;;;;;16.23;59.58;101048.84;6073462;28;20500;-73
2023/04/21 08:48:42;;;;;;;10.77;4.45;;;;;;;16.25;59.16;101033.44;6056504;28;20288;-74
2023/04/21 08:51:37;;;;;;;12.10;5.07;;;;;;;16.33;58.01;101054.84;6073740;28;20044;-73
2023/04/21 08:54:35;;;;;;;9.50;4.97;;;;;;;16.42;58.83;101032.34;6073440;28;20037;-73
2023/04/21 08:57:30;;;;;;;10.13;5.50;;;;;;;16.49;57.02;101038.69;6073072;28;20395;-72
2023/04/21 09:00:26;;;;;;;12.85;5.03;;;;;;;16.67;55.72;101041.09;6073769;28;20033;-73
2023/04/21 09:03:25;;;;;;;11.67;4.70;;;;;;;16.74;55.79;101049.28;6072864;28;20480;-74
2023/04/21 09:06:20;;;;;;;9.68;4.72;;;;;;;16.95;54.76;101036.06;6073817;28;20124;-72
2023/04/21 09:09:16;;;;;;;8.97;4.13;;;;;;;16.84;54.42;101021.22;6073572;28;20033;-74
2023/04/21 09:12:11;;;;;;;9.55;4.07;;;;;;;16.79;52.11;101026.28;6073298;28;20414;-73
2023/04/21 09:15:09;;;;;;;10.57;4.10;;;;;;;17.16;51.94;101036.22;6071976;28;20055;-73
2023/04/21 09:18:19;;;;;;;9.57;3.83;;;;;;;17.72;51.87;101033.00;6073096;28;20034;-74
2023/04/21 09:21:17;;;;;;;15.90;5.00;;;;;;;17.43;51.23;101024.91;6079692;28;20041;-72
2023/04/21 09:24:12;;;;;;;11.43;4.45;;;;;;;17.55;51.04;101036.88;6075829;28;20037;-74
2023/04/21 09:27:08;;;;;;;10.77;4.40;;;;;;;17.57;50.42;101020.59;6073294;28;20029;-73
2023/04/21 09:30:06;;;;;;;12.13;4.90;;;;;;;17.34;51.78;101034.03;6072968;28;20060;-73
2023/04/21 09:33:01;;;;;;;11.77;4.07;;;;;;;17.35;50.08;101019.63;6073315;28;20045;-73
2023/04/21 09:36:00;;;;;;;10.77;4.07;;;;;;;17.68;49.28;101017.47;6072903;28;20075;-74
2023/04/21 09:38:57;;;;;;;11.93;4.20;;;;;;;17.87;48.77;101022.28;6072949;28;20413;-73
2023/04/21 09:41:52;;;;;;;9.63;3.63;;;;;;;17.68;48.79;101029.03;6073287;28;20390;-74
2023/04/21 09:44:47;;;;;;;7.40;3.63;;;;;;;17.72;48.24;101038.34;6072586;28;20037;-73
2023/04/21 09:47:45;;;;;;;9.20;3.97;;;;;;;17.67;48.16;101013.09;6073036;28;20033;-73
2023/04/21 09:50:41;;;;;;;13.77;4.22;;;;;;;17.80;48.03;100991.84;6088637;28;20637;-73
2023/04/21 09:53:38;;;;;;;7.38;3.97;;;;;;;18.01;48.40;101009.88;6072814;28;20121;-73
2023/04/21 09:56:36;;;;;;;11.50;4.40;;;;;;;18.38;46.33;101007.00;6072968;28;20061;-73
2023/04/21 09:59:34;;;;;;;8.75;3.63;;;;;;;18.80;47.24;100996.34;6062098;28;20060;-73
2023/04/21 10:02:30;;;;;;;9.73;4.40;;;;;;;18.79;45.59;100991.97;6062863;28;20390;-73
2023/04/21 10:05:25;;;;;;;10.82;4.80;;;;;;;18.55;45.80;101005.78;6076993;28;20063;-74
2023/04/21 10:08:21;;;;;;;9.93;4.03;;;;;;;18.35;45.81;100983.22;6077042;28;20033;-74
2023/04/21 10:11:17;;;;;;;8.35;3.83;;;;;;;18.48;46.40;100996.81;6077311;28;20351;-74
2023/04/21 10:14:12;;;;;;;8.57;3.88;;;;;;;18.85;45.28;100988.53;6076443;28;20159;-74
2023/04/21 10:17:09;;;;;;;9.33;3.93;;;;;;;18.78;44.62;100987.63;6077208;28;20033;-73
2023/04/21 10:20:05;;;;;;;9.50;3.83;;;;;;;18.77;45.01;100999.41;6076603;28;20349;-72
2023/04/21 10:23:01;;;;;;;11.98;4.75;;;;;;;18.93;44.69;100974.94;6076912;28;20029;-73
2023/04/21 10:26:08;;;;;;;8.27;4.07;;;;;;;19.15;44.77;100993.72;6076205;28;20398;-74
2023/04/21 10:29:05;;;;;;;10.90;4.03;;;;;;;19.19;44.44;100976.16;6077208;28;20027;-74
2023/04/21 10:32:02;;;;;;;7.88;4.32;;;;;;;19.15;44.07;100966.84;6077210;28;20466;-75
2023/04/21 10:34:57;;;;;;;8.02;4.15;;;;;;;19.16;44.06;100968.53;6075517;28;20083;-74
2023/04/21 10:37:52;;;;;;;8.90;4.00;;;;;;;19.28;44.28;100966.94;6077032;28;20037;-76
2023/04/21 10:40:49;;;;;;;7.53;4.23;;;;;;;19.35;42.50;100959.75;6078820;28;20502;-75
2023/04/21 10:43:45;;;;;;;7.85;3.85;;;;;;;19.44;40.91;100961.28;6105380;28;20509;-74
2023/04/21 10:46:48;;;;;;;7.45;3.90;;;;;;;19.07;40.18;100953.53;6076717;28;20108;-74
2023/04/21 10:49:43;;;;;;;9.18;4.25;;;;;;;19.16;40.80;100947.00;6076072;28;20060;-77
2023/04/21 10:52:38;;;;;;;10.70;6.27;;;;;;;19.18;41.69;100961.06;6076831;28;20372;-74
2023/04/21 10:55:34;;;;;;;8.55;4.07;;;;;;;19.55;41.10;100936.50;6075690;28;20044;-75
2023/04/21 10:58:31;;;;;;;8.15;4.22;;;;;;;19.53;40.91;100930.50;6076695;28;20025;-73
2023/04/21 11:01:27;;;;;;;12.18;4.28;;;;;;;19.47;38.85;100939.38;6080887;28;20044;-73
2023/04/21 11:04:22;;;;;;;10.53;4.13;;;;;;;19.43;40.08;100932.72;6057855;28;20124;-73
2023/04/21 11:07:19;;;;;;;7.97;4.03;;;;;;;19.25;38.67;100924.28;6076001;28;20036;-73
2023/04/21 11:10:16;;;;;;;10.30;4.03;;;;;;;19.24;37.10;100919.97;6075878;28;20268;-73
2023/04/21 11:13:11;;;;;;;9.60;4.53;;;;;;;19.30;38.29;100916.47;6076497;28;20033;-74
2023/04/21 11:16:07;;;;;;;8.30;3.73;;;;;;;19.75;38.59;100926.69;6075798;28;20040;-76
2023/04/21 11:19:02;;;;;;;7.15;4.30;;;;;;;19.62;38.07;100913.19;6075839;28;21114;-73
2023/04/21 11:21:58;;;;;;;10.20;3.90;;;;;;;19.63;39.09;100905.91;6076031;28;20025;-74
2023/04/21 11:24:55;;;;;;;8.05;4.25;;;;;;;19.72;38.54;100896.66;6049840;28;20269;-73
2023/04/21 11:27:54;;;;;;;6.75;4.43;;;;;;;19.98;38.16;100905.66;6075456;28;20036;-75
2023/04/21 11:30:50;;;;;;;8.65;4.22;;;;;;;19.91;37.12;100912.88;6076014;28;20091;-75
2023/04/21 11:33:45;;;;;;;8.95;4.80;;;;;;;19.52;37.19;100894.69;6075135;28;20037;-74
2023/04/21 11:36:42;;;;;;;9.30;3.90;;;;;;;19.47;36.12;100896.31;6083778;28;20051;-73
2023/04/21 11:39:39;;;;;;;7.50;3.85;;;;;;;19.47;35.90;100888.25;6074379;28;20288;-73
2023/04/21 11:42:35;;;;;;;9.80;4.57;;;;;;;19.85;37.61;100902.91;6076005;28;20033;-72
2023/04/21 11:45:30;;;;;;;9.18;4.53;;;;;;;20.18;37.57;100900.31;6073822;28;20040;-73
2023/04/21 11:48:28;;;;;;;7.87;4.40;;;;;;;19.69;36.93;100879.03;6075356;28;20068;-74
2023/04/21 11:51:23;;;;;;;8.38;4.22;;;;;;;19.91;35.60;100896.72;6075628;28;20041;-74
2023/04/21 11:54:20;;;;;;;10.02;5.53;;;;;;;19.63;36.82;100890.59;6073940;28;20033;-74
2023/04/21 11:57:17;;;;;;;10.82;5.22;;;;;;;19.85;37.61;100894.00;6075045;28;20502;-74
2023/04/21 12:00:14;;;;;;;8.38;4.75;;;;;;;20.15;38.52;100879.19;6079893;28;20033;-74
2023/04/21 12:03:11;;;;;;;7.18;4.55;;;;;;;20.20;37.81;100872.16;6079090;28;20116;-74
2023/04/21 12:06:07;;;;;;;11.48;4.88;;;;;;;19.66;38.88;100890.22;6074493;28;20583;-74
2023/04/21 12:09:02;;;;;;;9.00;4.67;;;;;;;19.98;38.02;100881.41;6074402;28;20029;-76
2023/04/21 12:11:58;;;;;;;9.40;4.47;;;;;;;20.00;37.91;100870.47;6074619;28;20076;-74
2023/04/21 12:14:53;;;;;;;9.93;4.70;;;;;;;20.24;37.24;100860.97;6074258;28;20699;-76
2023/04/21 12:17:53;;;;;;;6.80;4.38;;;;;;;20.05;36.19;100868.81;6075113;28;20036;-74
2023/04/21 12:20:50;;;;;;;7.85;3.92;;;;;;;20.20;37.04;100869.44;6074144;28;20114;-74
2023/04/21 12:23:45;;;;;;;11.05;4.72;;;;;;;20.46;36.48;100832.84;6073897;28;20037;-75
2023/04/21 12:26:40;;;;;;;10.05;4.32;;;;;;;20.10;36.38;100855.56;6072856;28;20041;-73
2023/04/21 12:29:37;;;;;;;8.23;5.17;;;;;;;20.13;36.44;100860.53;6074514;28;20068;-74
2023/04/21 12:32:32;;;;;;;11.10;3.83;;;;;;;20.25;35.37;100847.31;6074405;28;20264;-73
2023/04/21 12:35:27;;;;;;;6.33;3.97;;;;;;;20.30;34.34;100839.44;6073933;28;20434;-74
2023/04/21 12:38:23;;;;;;;5.63;3.30;;;;;;;20.36;34.83;100840.47;6074300;28;20037;-74
2023/04/21 12:41:18;;;;;;;8.30;3.60;;;;;;;20.44;33.46;100840.28;6073966;28;20420;-74
2023/04/21 12:44:14;;;;;;;6.77;3.57;;;;;;;20.29;33.65;100837.78;6073645;28;20037;-74
2023/04/21 12:47:09;;;;;;;8.25;4.20;;;;;;;20.27;33.45;100833.66;6074153;28;20112;-73
2023/04/21 12:50:05;;;;;;;9.98;3.88;;;;;;;20.39;33.84;100832.81;6074235;28;20029;-73
2023/04/21 12:53:00;;;;;;;8.80;3.58;;;;;;;20.50;33.57;100850.22;6073581;28;20095;-74
2023/04/21 12:55:55;;;;;;;9.93;4.53;;;;;;;20.34;32.61;100848.78;6073179;28;20033;-75
2023/04/21 12:58:51;;;;;;;8.77;3.87;;;;;;;20.41;33.06;100844.22;6073030;28;20124;-73
2023/04/21 13:01:46;;;;;;;6.85;3.65;;;;;;;20.37;33.58;100825.97;6091805;28;20037;-74
2023/04/21 13:04:42;;;;;;;6.00;3.90;;;;;;;20.54;33.31;100817.28;6077979;28;20033;-74
2023/04/21 13:07:37;;;;;;;7.00;3.40;;;;;;;20.63;33.33;100812.50;6093671;28;20017;-76
2023/04/21 13:10:33;;;;;;;7.03;3.83;;;;;;;20.27;32.42;100807.56;6082889;28;20357;-75
2023/04/21 13:13:28;;;;;;;6.93;4.10;;;;;;;20.28;32.04;100819.13;6054767;28;20034;-75
2023/04/21 13:16:23;;;;;;;6.17;3.37;;;;;;;20.23;32.63;100795.50;6073628;28;20545;-73
2023/04/21 13:19:18;;;;;;;9.93;3.70;;;;;;;20.62;32.41;100800.91;6073015;28;20028;-75
2023/04/21 13:22:14;;;;;;;7.60;4.10;;;;;;;20.18;32.46;100806.88;6073743;28;20111;-74
2023/04/21 13:25:09;;;;;;;11.43;4.05;;;;;;;20.39;33.68;100799.66;6072755;28;20536;-75
2023/04/21 13:28:06;;;;;;;8.13;3.77;;;;;;;20.27;32.65;100812.09;6072780;28;20056;-76
2023/04/21 13:31:01;;;;;;;6.00;3.72;;;;;;;20.51;33.05;100800.69;6072530;28;20467;-76